sensor_id;sensor_type;location;lat;lon;timestamp;pressure;altitude;pressure_sealevel;temperature;humidity
63347;BME280;49472;49.880;8.650;2023-07-13T00:01:03;-1311.38;;;-142.94;nan
63347;BME280;49472;49.880;8.650;2023-07-13T00:03:28;-331.94;;;-142.94;nan
63347;BME280;49472;49.880;8.650;2023-07-13T00:06:00;-3024.75;;;-142.94;nan
63347;BME280;49472;49.880;8.650;2023-07-13T00:08:29;-3024.75;;;-142.94;nan
63347;BME280;49472;49.880;8.650;2023-07-13T00:10:55;-2780.03;;;-142.94;nan
63347;BME280;49472;49.880;8.650;2023-07-13T00:13:20;-6937.59;;;-142.94;nan
63347;BME280;49472;49.880;8.650;2023-07-13T00:15:45;-5470.81;;;-142.94;nan
63347;BME280;49472;49.880;8.650;2023-07-13T00:18:11;-5226.31;;;-142.94;nan
63347;BME280;49472;49.880;8.650;2023-07-13T00:20:36;-5715.34;;;-142.94;nan
63347;BME280;49472;49.880;8.650;2023-07-13T00:23:02;-4492.63;;;-142.94;nan
63347;BME280;49472;49.880;8.650;2023-07-13T00:25:27;-5470.81;;;-142.94;nan
63347;BME280;49472;49.880;8.650;2023-07-13T00:27:56;-4003.41;;;-142.94;nan
63347;BME280;49472;49.880;8.650;2023-07-13T00:30:21;-8403.72;;;-142.94;nan
63347;BME280;49472;49.880;8.650;2023-07-13T00:32:47;-7426.38;;;-142.94;nan
63347;BME280;49472;49.880;8.650;2023-07-13T00:35:14;-8892.28;;;-142.94;nan
63347;BME280;49472;49.880;8.650;2023-07-13T00:37:40;-6204.28;;;-142.94;nan
63347;BME280;49472;49.880;8.650;2023-07-13T00:40:06;-8159.41;;;-142.94;nan
63347;BME280;49472;49.880;8.650;2023-07-13T00:42:32;-10357.50;;;-142.94;nan
63347;BME280;49472;49.880;8.650;2023-07-13T00:47:46;-8403.72;;;-142.94;nan
63347;BME280;49472;49.880;8.650;2023-07-13T00:50:13;-7915.09;;;-142.94;nan
63347;BME280;49472;49.880;8.650;2023-07-13T00:52:50;-7426.38;;;-142.94;nan
63347;BME280;49472;49.880;8.650;2023-07-13T00:55:17;-8892.28;;;-142.94;nan
63347;BME280;49472;49.880;8.650;2023-07-13T00:57:43;-9136.53;;;-142.94;nan
63347;BME280;49472;49.880;8.650;2023-07-13T01:00:10;-9136.53;;;-142.94;nan
63347;BME280;49472;49.880;8.650;2023-07-13T01:02:42;-9624.97;;;-142.94;nan
63347;BME280;49472;49.880;8.650;2023-07-13T01:05:15;-9869.19;;;-142.94;nan
63347;BME280;49472;49.880;8.650;2023-07-13T01:07:41;-10113.34;;;-142.94;nan
63347;BME280;49472;49.880;8.650;2023-07-13T01:10:08;-13042.06;;;-142.94;nan
63347;BME280;49472;49.880;8.650;2023-07-13T01:12:33;-13286.00;;;-142.94;nan
63347;BME280;49472;49.880;8.650;2023-07-13T01:15:00;-12798.13;;;-142.94;nan
63347;BME280;49472;49.880;8.650;2023-07-13T01:17:27;-12554.13;;;-142.94;nan
63347;BME280;49472;49.880;8.650;2023-07-13T01:19:53;-12798.13;;;-142.94;nan
63347;BME280;49472;49.880;8.650;2023-07-13T01:22:19;-13529.94;;;-142.94;nan
63347;BME280;49472;49.880;8.650;2023-07-13T01:24:46;-13286.00;;;-142.94;nan
63347;BME280;49472;49.880;8.650;2023-07-13T01:27:15;-13531.38;;;-142.94;nan
63347;BME280;49472;49.880;8.650;2023-07-13T01:29:44;-13531.38;;;-142.94;nan
63347;BME280;49472;49.880;8.650;2023-07-13T01:32:16;-13529.94;;;-142.94;nan
63347;BME280;49472;49.880;8.650;2023-07-13T01:34:41;-13531.38;;;-142.94;nan
63347;BME280;49472;49.880;8.650;2023-07-13T01:37:08;-13531.38;;;-142.94;nan
63347;BME280;49472;49.880;8.650;2023-07-13T01:39:34;-13531.38;;;-142.94;nan
63347;BME280;49472;49.880;8.650;2023-07-13T01:42:00;-13529.94;;;-142.94;nan
63347;BME280;49472;49.880;8.650;2023-07-13T01:44:26;-13529.94;;;-142.94;nan
63347;BME280;49472;49.880;8.650;2023-07-13T01:46:51;-12310.13;;;-142.94;nan
63347;BME280;49472;49.880;8.650;2023-07-13T01:49:16;-13531.38;;;-142.94;nan
63347;BME280;49472;49.880;8.650;2023-07-13T01:51:42;-13531.38;;;-142.94;nan
63347;BME280;49472;49.880;8.650;2023-07-13T01:54:07;-13531.38;;;-142.94;nan
63347;BME280;49472;49.880;8.650;2023-07-13T01:56:32;-13531.38;;;-142.94;nan
63347;BME280;49472;49.880;8.650;2023-07-13T01:58:58;-13531.38;;;-142.94;nan
63347;BME280;49472;49.880;8.650;2023-07-13T02:01:23;-13531.38;;;-142.94;nan
63347;BME280;49472;49.880;8.650;2023-07-13T02:03:48;-13531.38;;;-142.94;nan
63347;BME280;49472;49.880;8.650;2023-07-13T02:06:14;-13531.38;;;-142.94;nan
63347;BME280;49472;49.880;8.650;2023-07-13T02:08:40;-13531.38;;;-142.94;nan
63347;BME280;49472;49.880;8.650;2023-07-13T02:11:06;-13531.38;;;-142.94;nan
63347;BME280;49472;49.880;8.650;2023-07-13T02:13:32;-13531.38;;;-142.94;nan
63347;BME280;49472;49.880;8.650;2023-07-13T02:15:57;-13531.38;;;-142.94;nan
63347;BME280;49472;49.880;8.650;2023-07-13T02:18:22;-13531.38;;;-142.94;nan
63347;BME280;49472;49.880;8.650;2023-07-13T02:20:47;-13531.38;;;-142.94;nan
63347;BME280;49472;49.880;8.650;2023-07-13T02:23:13;-13531.38;;;-142.94;nan
63347;BME280;49472;49.880;8.650;2023-07-13T02:25:38;-13531.38;;;-142.94;nan
63347;BME280;49472;49.880;8.650;2023-07-13T02:28:04;-13531.38;;;-142.94;nan
63347;BME280;49472;49.880;8.650;2023-07-13T02:30:30;-13531.38;;;-142.94;nan
63347;BME280;49472;49.880;8.650;2023-07-13T02:32:56;-13531.38;;;-142.94;nan
63347;BME280;49472;49.880;8.650;2023-07-13T02:35:22;-13531.38;;;-142.94;nan
63347;BME280;49472;49.880;8.650;2023-07-13T02:37:48;-13531.38;;;-142.94;nan
63347;BME280;49472;49.880;8.650;2023-07-13T02:40:14;-13531.38;;;-142.94;nan
63347;BME280;49472;49.880;8.650;2023-07-13T02:42:39;-13531.38;;;-142.94;nan
63347;BME280;49472;49.880;8.650;2023-07-13T02:45:06;-13531.38;;;-142.94;nan
63347;BME280;49472;49.880;8.650;2023-07-13T02:47:32;-13531.38;;;-142.94;nan
63347;BME280;49472;49.880;8.650;2023-07-13T02:49:58;-13531.38;;;-142.94;nan
63347;BME280;49472;49.880;8.650;2023-07-13T02:52:23;-13531.38;;;-142.94;nan
63347;BME280;49472;49.880;8.650;2023-07-13T02:54:49;-13531.38;;;-142.94;nan
63347;BME280;49472;49.880;8.650;2023-07-13T02:57:14;-13531.38;;;-142.94;nan
63347;BME280;49472;49.880;8.650;2023-07-13T02:59:40;-13531.38;;;-142.94;nan
63347;BME280;49472;49.880;8.650;2023-07-13T03:02:06;-13531.38;;;-142.94;nan
63347;BME280;49472;49.880;8.650;2023-07-13T03:04:31;-13531.38;;;-142.94;nan
63347;BME280;49472;49.880;8.650;2023-07-13T03:06:56;-13531.38;;;-142.94;nan
63347;BME280;49472;49.880;8.650;2023-07-13T03:09:24;-13531.38;;;-142.94;nan
63347;BME280;49472;49.880;8.650;2023-07-13T03:11:49;-13531.38;;;-142.94;nan
63347;BME280;49472;49.880;8.650;2023-07-13T03:14:14;-13531.38;;;-142.94;nan
63347;BME280;49472;49.880;8.650;2023-07-13T03:16:40;-13531.38;;;-142.94;nan
63347;BME280;49472;49.880;8.650;2023-07-13T03:19:05;-13531.38;;;-142.94;nan
63347;BME280;49472;49.880;8.650;2023-07-13T03:21:31;-13531.38;;;-142.94;nan
63347;BME280;49472;49.880;8.650;2023-07-13T03:23:56;-13531.38;;;-142.94;nan
63347;BME280;49472;49.880;8.650;2023-07-13T03:26:21;-13531.38;;;-142.94;nan
63347;BME280;49472;49.880;8.650;2023-07-13T03:28:47;-13531.38;;;-142.94;nan
63347;BME280;49472;49.880;8.650;2023-07-13T03:31:16;-13531.38;;;-142.94;nan
63347;BME280;49472;49.880;8.650;2023-07-13T03:33:42;-13531.38;;;-142.94;nan
63347;BME280;49472;49.880;8.650;2023-07-13T03:36:16;-13531.38;;;-142.94;nan
63347;BME280;49472;49.880;8.650;2023-07-13T03:38:45;-13531.38;;;-142.94;nan
63347;BME280;49472;49.880;8.650;2023-07-13T03:41:11;-13531.38;;;-142.94;nan
63347;BME280;49472;49.880;8.650;2023-07-13T03:43:36;-13531.38;;;-142.94;nan
63347;BME280;49472;49.880;8.650;2023-07-13T03:46:02;-13531.38;;;-142.94;nan
63347;BME280;49472;49.880;8.650;2023-07-13T03:48:27;-13531.38;;;-142.94;nan
63347;BME280;49472;49.880;8.650;2023-07-13T03:50:52;-13531.38;;;-142.94;nan
63347;BME280;49472;49.880;8.650;2023-07-13T03:53:17;-13531.38;;;-142.94;nan
63347;BME280;49472;49.880;8.650;2023-07-13T03:55:44;-13531.38;;;-142.94;nan
63347;BME280;49472;49.880;8.650;2023-07-13T03:58:31;-13531.38;;;-142.94;nan
63347;BME280;49472;49.880;8.650;2023-07-13T04:00:57;-13531.38;;;-142.94;nan
63347;BME280;49472;49.880;8.650;2023-07-13T04:03:24;-13531.38;;;-142.94;nan
63347;BME280;49472;49.880;8.650;2023-07-13T04:05:49;-13531.38;;;-142.94;nan
63347;BME280;49472;49.880;8.650;2023-07-13T04:08:15;-13531.38;;;-142.94;nan
63347;BME280;49472;49.880;8.650;2023-07-13T04:10:41;-13531.38;;;-142.94;nan
63347;BME280;49472;49.880;8.650;2023-07-13T04:13:06;-13531.38;;;-142.94;nan
63347;BME280;49472;49.880;8.650;2023-07-13T04:15:32;-13531.38;;;-142.94;nan
63347;BME280;49472;49.880;8.650;2023-07-13T04:17:58;-13531.38;;;-142.94;nan
63347;BME280;49472;49.880;8.650;2023-07-13T04:20:25;-13531.38;;;-142.94;nan
63347;BME280;49472;49.880;8.650;2023-07-13T04:22:51;-13531.38;;;-142.94;nan
63347;BME280;49472;49.880;8.650;2023-07-13T04:25:16;-13531.38;;;-142.94;nan
63347;BME280;49472;49.880;8.650;2023-07-13T04:27:41;-13531.38;;;-142.94;nan
63347;BME280;49472;49.880;8.650;2023-07-13T04:30:07;-13531.38;;;-142.94;nan
63347;BME280;49472;49.880;8.650;2023-07-13T04:32:33;-13531.38;;;-142.94;nan
63347;BME280;49472;49.880;8.650;2023-07-13T04:34:58;-13531.38;;;-142.94;nan
63347;BME280;49472;49.880;8.650;2023-07-13T04:37:25;-13531.38;;;-142.94;nan
63347;BME280;49472;49.880;8.650;2023-07-13T04:39:50;-13531.38;;;-142.94;nan
63347;BME280;49472;49.880;8.650;2023-07-13T04:42:16;-13531.38;;;-142.94;nan
63347;BME280;49472;49.880;8.650;2023-07-13T04:44:41;-13531.38;;;-142.94;nan
63347;BME280;49472;49.880;8.650;2023-07-13T04:47:07;-13531.38;;;-142.94;nan
63347;BME280;49472;49.880;8.650;2023-07-13T04:49:32;-13531.38;;;-142.94;nan
63347;BME280;49472;49.880;8.650;2023-07-13T04:51:57;-13531.38;;;-142.94;nan
63347;BME280;49472;49.880;8.650;2023-07-13T04:54:23;-13531.38;;;-142.94;nan
63347;BME280;49472;49.880;8.650;2023-07-13T04:56:48;-13531.38;;;-142.94;nan
63347;BME280;49472;49.880;8.650;2023-07-13T04:59:13;-13531.38;;;-142.94;nan
63347;BME280;49472;49.880;8.650;2023-07-13T05:01:39;-13531.38;;;-142.94;nan
63347;BME280;49472;49.880;8.650;2023-07-13T05:04:05;-13531.38;;;-142.94;nan
63347;BME280;49472;49.880;8.650;2023-07-13T05:06:31;-13531.38;;;-142.94;nan
63347;BME280;49472;49.880;8.650;2023-07-13T05:08:57;-13531.38;;;-142.94;nan
63347;BME280;49472;49.880;8.650;2023-07-13T05:11:22;-13531.38;;;-142.94;nan
63347;BME280;49472;49.880;8.650;2023-07-13T05:13:47;-13531.38;;;-142.94;nan
63347;BME280;49472;49.880;8.650;2023-07-13T05:16:13;-13531.38;;;-142.94;nan
63347;BME280;49472;49.880;8.650;2023-07-13T05:18:38;-13531.38;;;-142.94;nan
63347;BME280;49472;49.880;8.650;2023-07-13T05:24:28;-13531.38;;;-142.94;nan
63347;BME280;49472;49.880;8.650;2023-07-13T05:26:54;-13531.38;;;-142.94;nan
63347;BME280;49472;49.880;8.650;2023-07-13T05:29:23;-13531.38;;;-142.94;nan
63347;BME280;49472;49.880;8.650;2023-07-13T05:31:48;-13531.38;;;-142.94;nan
63347;BME280;49472;49.880;8.650;2023-07-13T05:34:14;-13531.38;;;-142.94;nan
63347;BME280;49472;49.880;8.650;2023-07-13T05:36:40;-13531.38;;;-142.94;nan
63347;BME280;49472;49.880;8.650;2023-07-13T05:39:05;-13531.38;;;-142.94;nan
63347;BME280;49472;49.880;8.650;2023-07-13T05:41:30;-13531.38;;;-142.94;nan
63347;BME280;49472;49.880;8.650;2023-07-13T05:43:56;-13531.38;;;-142.94;nan
63347;BME280;49472;49.880;8.650;2023-07-13T05:46:21;-13529.94;;;-142.94;nan
63347;BME280;49472;49.880;8.650;2023-07-13T05:48:46;-13531.38;;;-142.94;nan
63347;BME280;49472;49.880;8.650;2023-07-13T05:51:12;-13286.00;;;-142.94;nan
63347;BME280;49472;49.880;8.650;2023-07-13T05:53:37;-12798.13;;;-142.94;nan
63347;BME280;49472;49.880;8.650;2023-07-13T05:56:02;-12310.13;;;-142.94;nan
63347;BME280;49472;49.880;8.650;2023-07-13T05:58:28;-12554.13;;;-142.94;nan
63347;BME280;49472;49.880;8.650;2023-07-13T06:01:05;-11578.03;;;-142.94;nan
63347;BME280;49472;49.880;8.650;2023-07-13T06:03:31;-11333.97;;;-142.94;nan
63347;BME280;49472;49.880;8.650;2023-07-13T06:05:57;-10113.34;;;-142.94;nan
63347;BME280;49472;49.880;8.650;2023-07-13T06:08:22;-10601.66;;;-142.94;nan
63347;BME280;49472;49.880;8.650;2023-07-13T06:10:47;-11578.03;;;-142.94;nan
63347;BME280;49472;49.880;8.650;2023-07-13T06:13:13;-11089.88;;;-142.94;nan
63347;BME280;49472;49.880;8.650;2023-07-13T06:15:38;-11333.97;;;-142.94;nan
63347;BME280;49472;49.880;8.650;2023-07-13T06:18:03;-8648.00;;;-142.94;nan
63347;BME280;49472;49.880;8.650;2023-07-13T06:20:29;-8159.41;;;-142.94;nan
63347;BME280;49472;49.880;8.650;2023-07-13T06:22:54;-8403.72;;;-142.94;nan
63347;BME280;49472;49.880;8.650;2023-07-13T06:25:19;-8648.00;;;-142.94;nan
63347;BME280;49472;49.880;8.650;2023-07-13T06:27:45;-6448.75;;;-142.94;nan
63347;BME280;49472;49.880;8.650;2023-07-13T06:30:11;-7426.38;;;-142.94;nan
63347;BME280;49472;49.880;8.650;2023-07-13T06:32:36;-9380.75;;;-142.94;nan
63347;BME280;49472;49.880;8.650;2023-07-13T06:35:04;-9136.53;;;-142.94;nan
63347;BME280;49472;49.880;8.650;2023-07-13T06:37:30;-8892.28;;;-142.94;nan
63347;BME280;49472;49.880;8.650;2023-07-13T06:39:55;-7670.75;;;-142.94;nan
63347;BME280;49472;49.880;8.650;2023-07-13T06:42:20;-8403.72;;;-142.94;nan
63347;BME280;49472;49.880;8.650;2023-07-13T06:44:46;-10601.66;;;-142.94;nan
63347;BME280;49472;49.880;8.650;2023-07-13T06:47:11;-9624.97;;;-142.94;nan
63347;BME280;49472;49.880;8.650;2023-07-13T06:49:36;-9380.75;;;-142.94;nan
63347;BME280;49472;49.880;8.650;2023-07-13T06:52:02;-7915.09;;;-142.94;nan
63347;BME280;49472;49.880;8.650;2023-07-13T06:54:27;-9624.97;;;-142.94;nan
63347;BME280;49472;49.880;8.650;2023-07-13T06:56:53;-8403.72;;;-142.94;nan
63347;BME280;49472;49.880;8.650;2023-07-13T06:59:18;-8403.72;;;-142.94;nan
63347;BME280;49472;49.880;8.650;2023-07-13T07:01:44;-7426.38;;;-142.94;nan
63347;BME280;49472;49.880;8.650;2023-07-13T07:04:09;-6693.19;;;-142.94;nan
63347;BME280;49472;49.880;8.650;2023-07-13T07:06:34;-5959.81;;;-142.94;nan
63347;BME280;49472;49.880;8.650;2023-07-13T07:09:00;-5715.34;;;-142.94;nan
63347;BME280;49472;49.880;8.650;2023-07-13T07:11:25;-6204.28;;;-142.94;nan
63347;BME280;49472;49.880;8.650;2023-07-13T07:13:52;-6448.75;;;-142.94;nan
63347;BME280;49472;49.880;8.650;2023-07-13T07:16:18;-6448.75;;;-142.94;nan
63347;BME280;49472;49.880;8.650;2023-07-13T07:18:44;-5470.81;;;-142.94;nan
63347;BME280;49472;49.880;8.650;2023-07-13T07:21:10;-3024.75;;;-142.94;nan
63347;BME280;49472;49.880;8.650;2023-07-13T07:23:35;-4248.00;;;-142.94;nan
63347;BME280;49472;49.880;8.650;2023-07-13T07:26:01;-2535.31;;;-142.94;nan
63347;BME280;49472;49.880;8.650;2023-07-13T07:28:26;-1801.00;;;-142.94;nan
63347;BME280;49472;49.880;8.650;2023-07-13T07:30:54;-1801.00;;;-142.94;nan
63347;BME280;49472;49.880;8.650;2023-07-13T07:33:20;-576.81;;;-142.94;nan
63347;BME280;49472;49.880;8.650;2023-07-13T07:35:46;647.81;;;-142.94;nan
63347;BME280;49472;49.880;8.650;2023-07-13T07:38:11;-331.94;;;-142.94;nan
63347;BME280;49472;49.880;8.650;2023-07-13T07:40:40;-1066.56;;;-142.94;nan
63347;BME280;49472;49.880;8.650;2023-07-13T07:43:07;-87.03;;;-142.94;nan
63347;BME280;49472;49.880;8.650;2023-07-13T07:45:32;1872.94;;;-142.94;nan
63347;BME280;49472;49.880;8.650;2023-07-13T07:47:58;2853.34;;;-142.94;nan
63347;BME280;49472;49.880;8.650;2023-07-13T07:50:27;4079.25;;;-142.94;nan
63347;BME280;49472;49.880;8.650;2023-07-13T07:52:53;6777.91;;;-142.94;nan
63347;BME280;49472;49.880;8.650;2023-07-13T07:55:21;7514.28;;;-142.94;nan
63347;BME280;49472;49.880;8.650;2023-07-13T07:57:47;7268.81;;;-142.94;nan
63347;BME280;49472;49.880;8.650;2023-07-13T08:00:15;7759.78;;;-142.94;nan
63347;BME280;49472;49.880;8.650;2023-07-13T08:02:41;5796.31;;;-142.94;nan
63347;BME280;49472;49.880;8.650;2023-07-13T08:05:08;7268.81;;;-142.94;nan
63347;BME280;49472;49.880;8.650;2023-07-13T08:07:33;8496.38;;;-142.94;nan
63347;BME280;49472;49.880;8.650;2023-07-13T08:09:59;9233.13;;;-142.94;nan
63347;BME280;49472;49.880;8.650;2023-07-13T08:12:24;9724.41;;;-142.94;nan
63347;BME280;49472;49.880;8.650;2023-07-13T08:14:50;10215.75;;;-142.94;nan
63347;BME280;49472;49.880;8.650;2023-07-13T08:17:20;9724.41;;;-142.94;nan
63347;BME280;49472;49.880;8.650;2023-07-13T08:19:50;11198.66;;;-142.94;nan
63347;BME280;49472;49.880;8.650;2023-07-13T08:22:15;11444.41;;;-142.94;nan
63347;BME280;49472;49.880;8.650;2023-07-13T08:24:41;11444.41;;;-142.94;nan
63347;BME280;49472;49.880;8.650;2023-07-13T08:27:07;14395.09;;;-142.94;nan
63347;BME280;49472;49.880;8.650;2023-07-13T08:29:33;12427.69;;;-142.94;nan
63347;BME280;49472;49.880;8.650;2023-07-13T08:32:00;13903.13;;;-142.94;nan
63347;BME280;49472;49.880;8.650;2023-07-13T08:34:26;12673.53;;;-142.94;nan
63347;BME280;49472;49.880;8.650;2023-07-13T08:36:51;11690.22;;;-142.94;nan
63347;BME280;49472;49.880;8.650;2023-07-13T08:39:16;13411.25;;;-142.94;nan
63347;BME280;49472;49.880;8.650;2023-07-13T08:41:46;13903.13;;;-142.94;nan
63347;BME280;49472;49.880;8.650;2023-07-13T08:44:21;12673.53;;;-142.94;nan
63347;BME280;49472;49.880;8.650;2023-07-13T08:46:49;15133.16;;;-142.94;nan
63347;BME280;49472;49.880;8.650;2023-07-13T08:49:20;14149.09;;;-142.94;nan
63347;BME280;49472;49.880;8.650;2023-07-13T08:51:57;14887.13;;;-142.94;nan
63347;BME280;49472;49.880;8.650;2023-07-13T08:54:38;16856.00;;;-142.94;nan
63347;BME280;49472;49.880;8.650;2023-07-13T08:57:14;18087.13;;;-142.94;nan
63347;BME280;49472;49.880;8.650;2023-07-13T08:59:40;17594.63;;;-142.94;nan
63347;BME280;49472;49.880;8.650;2023-07-13T09:12:36;20797.25;;;-142.94;nan
63347;BME280;49472;49.880;8.650;2023-07-13T09:15:17;22276.44;;;-142.94;nan
63347;BME280;49472;49.880;8.650;2023-07-13T09:17:49;22523.03;;;-142.94;nan
63347;BME280;49472;49.880;8.650;2023-07-13T09:20:23;22276.44;;;-142.94;nan
63347;BME280;49472;49.880;8.650;2023-07-13T09:22:50;21043.72;;;-142.94;nan
63347;BME280;49472;49.880;8.650;2023-07-13T09:28:00;22276.44;;;-142.94;nan
63347;BME280;49472;49.880;8.650;2023-07-13T09:30:36;22523.03;;;-142.94;nan
63347;BME280;49472;49.880;8.650;2023-07-13T09:33:03;22523.03;;;-142.94;nan
63347;BME280;49472;49.880;8.650;2023-07-13T09:35:29;22276.44;;;-142.94;nan
63347;BME280;49472;49.880;8.650;2023-07-13T09:38:04;23262.91;;;-142.94;nan
63347;BME280;49472;49.880;8.650;2023-07-13T09:40:42;24496.44;;;-142.94;nan
63347;BME280;49472;49.880;8.650;2023-07-13T09:43:13;25483.56;;;-142.94;nan
63347;BME280;49472;49.880;8.650;2023-07-13T09:45:40;27211.78;;;-142.94;nan
63347;BME280;49472;49.880;8.650;2023-07-13T09:48:10;28693.81;;;-142.94;nan
63347;BME280;49472;49.880;8.650;2023-07-13T09:50:36;32154.44;;;-142.94;nan
63347;BME280;49472;49.880;8.650;2023-07-13T09:53:02;35123.56;;;-142.94;nan
63347;BME280;49472;49.880;8.650;2023-07-13T09:55:34;35866.25;;;-142.94;nan
63347;BME280;49472;49.880;8.650;2023-07-13T09:58:25;33391.25;;;-142.94;nan
63347;BME280;49472;49.880;8.650;2023-07-13T10:01:00;34876.03;;;-142.94;nan
63347;BME280;49472;49.880;8.650;2023-07-13T10:03:32;32649.13;;;-142.94;nan
63347;BME280;49472;49.880;8.650;2023-07-13T10:06:17;33143.88;;;-142.94;nan
63347;BME280;49472;49.880;8.650;2023-07-13T10:08:48;33391.25;;;-142.94;nan
63347;BME280;49472;49.880;8.650;2023-07-13T10:11:35;38219.19;;;-142.94;nan
63347;BME280;49472;49.880;8.650;2023-07-13T10:14:03;39400.16;;;-142.94;nan
63347;BME280;49472;49.880;8.650;2023-07-13T10:16:34;37975.31;;;-142.94;nan
63347;BME280;49472;49.880;8.650;2023-07-13T10:19:05;40552.47;;;-142.94;nan
63347;BME280;49472;49.880;8.650;2023-07-13T10:21:36;39191.03;;;-142.94;nan
63347;BME280;49472;49.880;8.650;2023-07-13T10:26:39;42817.59;;;-142.94;nan
63347;BME280;49472;49.880;8.650;2023-07-13T10:29:11;43185.91;;;-142.94;nan
63347;BME280;49472;49.880;8.650;2023-07-13T10:31:40;44238.69;;;-142.94;nan
63347;BME280;49472;49.880;8.650;2023-07-13T10:34:09;45445.03;;;-142.94;nan
63347;BME280;49472;49.880;8.650;2023-07-13T10:36:44;45229.72;;;-142.94;nan
63347;BME280;49472;49.880;8.650;2023-07-13T10:39:36;46141.50;;;-142.94;nan
63347;BME280;49472;49.880;8.650;2023-07-13T10:42:04;45666.19;;;-142.94;nan
63347;BME280;49472;49.880;8.650;2023-07-13T10:44:34;44182.44;;;-142.94;nan
63347;BME280;49472;49.880;8.650;2023-07-13T10:47:07;43827.63;;;-142.94;nan
63347;BME280;49472;49.880;8.650;2023-07-13T10:49:34;45412.06;;;-142.94;nan
63347;BME280;49472;49.880;8.650;2023-07-13T10:52:02;44486.91;;;-142.94;nan
63347;BME280;49472;49.880;8.650;2023-07-13T10:54:31;48272.53;;;-142.94;nan
63347;BME280;49472;49.880;8.650;2023-07-13T10:57:20;49057.00;;;-142.94;nan
63347;BME280;49472;49.880;8.650;2023-07-13T10:59:48;49068.63;;;-142.94;nan
63347;BME280;49472;49.880;8.650;2023-07-13T11:02:28;48099.75;;;-142.94;nan
63347;BME280;49472;49.880;8.650;2023-07-13T11:04:55;48319.16;;;-142.94;nan
63347;BME280;49472;49.880;8.650;2023-07-13T11:07:27;49443.44;;;-142.94;nan
63347;BME280;49472;49.880;8.650;2023-07-13T11:09:56;50263.13;;;-142.94;nan
63347;BME280;49472;49.880;8.650;2023-07-13T11:15:12;49892.09;;;-142.94;nan
63347;BME280;49472;49.880;8.650;2023-07-13T11:17:49;49142.44;;;-142.94;nan
63347;BME280;49472;49.880;8.650;2023-07-13T11:22:52;49983.41;;;-142.94;nan
63347;BME280;49472;49.880;8.650;2023-07-13T11:28:03;49212.34;;;-142.94;nan
63347;BME280;49472;49.880;8.650;2023-07-13T11:33:11;51780.63;;;-142.94;nan
63347;BME280;49472;49.880;8.650;2023-07-13T11:36:18;52013.84;;;-142.94;nan
63347;BME280;49472;49.880;8.650;2023-07-13T11:39:13;51996.38;;;-142.94;nan
63347;BME280;49472;49.880;8.650;2023-07-13T11:42:02;52297.63;;;-142.94;nan
63347;BME280;49472;49.880;8.650;2023-07-13T11:44:29;52505.63;;;-142.94;nan
63347;BME280;49472;49.880;8.650;2023-07-13T11:47:08;52684.47;;;-142.94;nan
63347;BME280;49472;49.880;8.650;2023-07-13T11:49:42;52771.94;;;-142.94;nan
63347;BME280;49472;49.880;8.650;2023-07-13T11:52:12;53263.81;;;-142.94;nan
63347;BME280;49472;49.880;8.650;2023-07-13T11:54:52;53405.75;;;-142.94;nan
63347;BME280;49472;49.880;8.650;2023-07-13T11:57:30;52966.34;;;-142.94;nan
63347;BME280;49472;49.880;8.650;2023-07-13T12:00:04;52954.69;;;-142.94;nan
63347;BME280;49472;49.880;8.650;2023-07-13T12:02:38;53399.94;;;-142.94;nan
63347;BME280;49472;49.880;8.650;2023-07-13T12:05:05;53067.44;;;-142.94;nan
63347;BME280;49472;49.880;8.650;2023-07-13T12:07:32;53069.41;;;-142.94;nan
63347;BME280;49472;49.880;8.650;2023-07-13T12:10:26;53211.31;;;-142.94;nan
63347;BME280;49472;49.880;8.650;2023-07-13T12:13:05;53275.50;;;-142.94;nan
63347;BME280;49472;49.880;8.650;2023-07-13T12:18:09;53151.06;;;-142.94;nan
63347;BME280;49472;49.880;8.650;2023-07-13T12:20:38;53291.03;;;-142.94;nan
63347;BME280;49472;49.880;8.650;2023-07-13T12:23:34;53195.78;;;-142.94;nan
63347;BME280;49472;49.880;8.650;2023-07-13T12:26:05;53407.72;;;-142.94;nan
63347;BME280;49472;49.880;8.650;2023-07-13T12:28:37;53648.81;;;-142.94;nan
63347;BME280;49472;49.880;8.650;2023-07-13T12:31:08;53788.84;;;-142.94;nan
63347;BME280;49472;49.880;8.650;2023-07-13T12:33:43;53854.94;;;-142.94;nan
63347;BME280;49472;49.880;8.650;2023-07-13T12:36:11;53950.25;;;-142.94;nan
63347;BME280;49472;49.880;8.650;2023-07-13T12:38:37;53911.34;;;-142.94;nan
63347;BME280;49472;49.880;8.650;2023-07-13T12:41:02;54000.81;;;-142.94;nan
63347;BME280;49472;49.880;8.650;2023-07-13T12:43:33;53987.19;;;-142.94;nan
63347;BME280;49472;49.880;8.650;2023-07-13T12:46:05;53934.69;;;-142.94;nan
63347;BME280;49472;49.880;8.650;2023-07-13T12:48:41;53874.41;;;-142.94;nan
63347;BME280;49472;49.880;8.650;2023-07-13T12:51:10;53783.00;;;-142.94;nan
63347;BME280;49472;49.880;8.650;2023-07-13T12:53:41;53977.47;;;-142.94;nan
63347;BME280;49472;49.880;8.650;2023-07-13T12:56:19;53989.13;;;-142.94;nan
63347;BME280;49472;49.880;8.650;2023-07-13T12:58:47;54059.16;;;-142.94;nan
63347;BME280;49472;49.880;8.650;2023-07-13T13:01:17;54121.38;;;-142.94;nan
63347;BME280;49472;49.880;8.650;2023-07-13T13:03:48;54154.44;;;-142.94;nan
63347;BME280;49472;49.880;8.650;2023-07-13T13:08:48;54028.03;;;-142.94;nan
63347;BME280;49472;49.880;8.650;2023-07-13T13:11:15;54000.81;;;-142.94;nan
63347;BME280;49472;49.880;8.650;2023-07-13T13:13:41;54059.16;;;-142.94;nan
63347;BME280;49472;49.880;8.650;2023-07-13T13:16:12;54082.47;;;-142.94;nan
63347;BME280;49472;49.880;8.650;2023-07-13T13:18:40;54088.31;;;-142.94;nan
63347;BME280;49472;49.880;8.650;2023-07-13T13:21:05;54115.53;;;-142.94;nan
63347;BME280;49472;49.880;8.650;2023-07-13T13:23:32;54133.03;;;-142.94;nan
63347;BME280;49472;49.880;8.650;2023-07-13T13:25:58;54082.47;;;-142.94;nan
63347;BME280;49472;49.880;8.650;2023-07-13T13:28:23;54055.25;;;-142.94;nan
63347;BME280;49472;49.880;8.650;2023-07-13T13:30:50;53989.13;;;-142.94;nan
63347;BME280;49472;49.880;8.650;2023-07-13T13:33:17;53907.44;;;-142.94;nan
63347;BME280;49472;49.880;8.650;2023-07-13T13:35:43;54080.53;;;-142.94;nan
63347;BME280;49472;49.880;8.650;2023-07-13T13:38:18;54063.03;;;-142.94;nan
63347;BME280;49472;49.880;8.650;2023-07-13T13:40:45;54049.41;;;-142.94;nan